| time (UTC) | temp F | wind direction | speed MPH | gust MPH | rain 1hr in | rain 24hr in | rain mn in | humidity % | barometer mb |
| 20260906200454 | 90 | 138 | 3.0 | 6.0 | 0.00 | 0.45 | 0.45 | 68 | 1012.2 |
| 20260906195950 | 90 | 190 | 3.0 | 6.0 | 0.00 | 0.45 | 0.45 | 68 | 1012.2 |
| 20260906195451 | 91 | 198 | 2.0 | 5.0 | 0.00 | 0.45 | 0.45 | 68 | 1012.4 |
| 20260906194943 | 91 | 151 | 3.0 | 5.0 | 0.00 | 0.45 | 0.45 | 68 | 1012.5 |
| 20260906194425 | 91 | 209 | 3.0 | 5.0 | 0.00 | 0.45 | 0.45 | 68 | 1012.5 |
| 20260906193913 | 91 | 165 | 2.0 | 5.0 | 0.00 | 0.45 | 0.45 | 68 | 1012.7 |
| 20260906193414 | 91 | 194 | 3.0 | 5.0 | 0.00 | 0.45 | 0.45 | 68 | 1012.7 |
| 20260906192901 | 91 | 193 | 2.0 | 5.0 | 0.00 | 0.45 | 0.45 | 67 | 1012.8 |
| 20260906191744 | 92 | 178 | 2.0 | 5.0 | 0.00 | 0.45 | 0.45 | 64 | 1012.8 |
| 20260906191249 | 93 | 166 | 2.0 | 4.0 | 0.00 | 0.45 | 0.45 | 64 | 1012.7 |
| 20260906190749 | 93 | 191 | 1.0 | 3.0 | 0.00 | 0.45 | 0.45 | 64 | 1012.6 |
| 20260906190238 | 93 | 169 | 1.0 | 3.0 | 0.00 | 0.45 | 0.45 | 65 | 1012.5 |
| 20260906185729 | 92 | 187 | 1.0 | 3.0 | 0.00 | 0.45 | 0.45 | 64 | 1012.6 |
| 20260906185221 | 92 | 189 | 1.0 | 4.0 | 0.00 | 0.45 | 0.45 | 64 | 1012.6 |
| 20260906184704 | 92 | 167 | 2.0 | 4.0 | 0.00 | 0.45 | 0.45 | 62 | 1012.6 |
| 20260906184156 | 92 | 184 | 2.0 | 4.0 | 0.00 | 0.45 | 0.45 | 63 | 1012.6 |
| 20260906183643 | 92 | 179 | 2.0 | 4.0 | 0.00 | 0.45 | 0.45 | 62 | 1012.6 |
| 20260906183142 | 91 | 198 | 2.0 | 5.0 | 0.00 | 0.45 | 0.45 | 64 | 1012.5 |
| 20260906181402 | 91 | 183 | 2.0 | 4.0 | 0.00 | 0.45 | 0.45 | 63 | 1012.8 |
| 20260906180907 | 91 | 192 | 2.0 | 4.0 | 0.00 | 0.45 | 0.45 | 63 | 1012.9 |
| 20260906180347 | 91 | 200 | 1.0 | 3.0 | 0.00 | 0.45 | 0.45 | 62 | 1013.0 |
| 20260906175232 | 91 | 188 | 0.0 | 2.0 | 0.00 | 0.45 | 0.45 | 64 | 1013.0 |
| 20260906174726 | 90 | 188 | 0.0 | 1.0 | 0.00 | 0.45 | 0.45 | 65 | 1013.0 |
| 20260906174216 | 90 | 188 | 1.0 | 4.0 | 0.00 | 0.45 | 0.45 | 67 | 1013.1 |
| 20260906173717 | 89 | 172 | 2.0 | 4.0 | 0.00 | 0.45 | 0.45 | 66 | 1013.2 |
| 20260906173213 | 90 | 198 | 2.0 | 4.0 | 0.00 | 0.45 | 0.45 | 67 | 1013.2 |
| 20260906172653 | 90 | 200 | 2.0 | 4.0 | 0.00 | 0.45 | 0.45 | 70 | 1013.3 |
| 20260906172137 | 89 | 213 | 2.0 | 5.0 | 0.00 | 0.45 | 0.45 | 71 | 1013.3 |
| 20260906171631 | 88 | 199 | 2.0 | 5.0 | 0.00 | 0.45 | 0.45 | 73 | 1013.5 |
| 20260906170516 | 87 | 210 | 2.0 | 10.0 | 0.00 | 0.45 | 0.45 | 75 | 1013.6 |
| 20260906170017 | 86 | 172 | 3.0 | 10.0 | 0.00 | 0.45 | 0.45 | 76 | 1013.5 |
| 20260906165456 | 85 | 213 | 3.0 | 10.0 | 0.00 | 0.45 | 0.45 | 76 | 1013.5 |
| 20260906164944 | 84 | 196 | 3.0 | 9.0 | 0.00 | 0.45 | 0.45 | 78 | 1013.5 |
| 20260906164446 | 83 | 204 | 2.0 | 9.0 | 0.00 | 0.45 | 0.45 | 78 | 1013.5 |
| 20260906163941 | 83 | 285 | 3.0 | 10.0 | 0.00 | 0.45 | 0.45 | 79 | 1013.5 |
| 20260906163435 | 83 | 240 | 3.0 | 10.0 | 0.00 | 0.45 | 0.45 | 80 | 1013.6 |
| 20260906162933 | 83 | 242 | 3.0 | 14.0 | 0.00 | 0.45 | 0.45 | 80 | 1013.6 |
| 20260906161803 | 83 | 246 | 4.0 | 14.0 | 0.04 | 0.45 | 0.45 | 79 | 1014.1 |
| 20260906161243 | 83 | 251 | 2.0 | 14.0 | 0.06 | 0.45 | 0.45 | 78 | 1013.9 |
| 20260906160738 | 82 | 61 | 0.0 | 3.0 | 0.06 | 0.45 | 0.45 | 78 | 1014.0 |
| 20260906155559 | 81 | 63 | 3.0 | 12.0 | 0.35 | 0.44 | 0.44 | 74 | 1013.7 |
| 20260906155039 | 82 | 250 | 2.0 | 12.0 | 1.15 | 0.38 | 0.38 | 75 | 1013.8 |
| 20260906154524 | 83 | 7 | 5.0 | 2.0 | 0.36 | 0.34 | 0.33 | 75 | 1014.0 |
| 20260906154022 | 84 | 98 | 7.0 | 15.0 | 3.05 | 0.24 | 0.24 | 75 | 1013.9 |
| 20260906153512 | 85 | 83 | 4.0 | 12.0 | 0.73 | 0.12 | 0.12 | 75 | 1013.4 |
| 20260906152954 | 86 | 78 | 6.0 | 12.0 | 0.10 | 0.09 | 0.09 | 73 | 1013.4 |
| 20260906152438 | 88 | 86 | 5.0 | 12.0 | 0.16 | 0.09 | 0.09 | 72 | 1013.4 |
| 20260906151920 | 90 | 90 | 3.0 | 6.0 | 0.00 | 0.07 | 0.07 | 72 | 1013.4 |
| 20260906151421 | 90 | 90 | 2.0 | 6.0 | 0.00 | 0.07 | 0.07 | 71 | 1013.3 |
| 20260906150920 | 90 | 89 | 0.0 | 2.0 | 0.00 | 0.07 | 0.07 | 70 | 1013.2 |
| 20260906150409 | 90 | 117 | 0.0 | 2.0 | 0.00 | 0.07 | 0.07 | 71 | 1013.3 |
| 20260906145850 | 90 | 235 | 0.0 | 0.0 | 0.00 | 0.07 | 0.07 | 71 | 1013.3 |
| 20260906145354 | 90 | 357 | 0.0 | 0.0 | 0.00 | 0.07 | 0.07 | 72 | 1013.2 |
| 20260906144839 | 89 | 84 | 0.0 | 0.0 | 0.00 | 0.07 | 0.07 | 73 | 1013.2 |
| 20260906143046 | 87 | 50 | 1.0 | 4.0 | 0.00 | 0.07 | 0.07 | 77 | 1013.1 |
| 20260906141254 | 86 | 44 | 0.0 | 4.0 | 0.00 | 0.07 | 0.07 | 78 | 1013.1 |
| 20260906140736 | 86 | 36 | 0.0 | 3.0 | 0.00 | 0.07 | 0.07 | 78 | 1013.1 |
| 20260906140223 | 85 | 46 | 0.0 | 3.0 | 0.00 | 0.07 | 0.07 | 78 | 1013.2 |
| 20260906135727 | 85 | 22 | 0.0 | 2.0 | 0.00 | 0.07 | 0.07 | 78 | 1013.0 |
| 20260906135225 | 85 | 357 | 0.0 | 2.0 | 0.00 | 0.07 | 0.07 | 77 | 1012.7 |
| 20260906134728 | 84 | 357 | 0.0 | 0.0 | 0.00 | 0.07 | 0.07 | 77 | 1012.7 |
| 20260906134234 | 84 | 357 | 0.0 | 0.0 | 0.00 | 0.07 | 0.07 | 77 | 1012.9 |
| 20260906133713 | 84 | 357 | 0.0 | 0.0 | 0.00 | 0.07 | 0.07 | 77 | 1012.8 |
| 20260906133217 | 84 | 357 | 0.0 | 0.0 | 0.00 | 0.07 | 0.07 | 77 | 1012.8 |
| 20260906132703 | 84 | 357 | 0.0 | 0.0 | 0.00 | 0.07 | 0.07 | 77 | 1012.8 |
| 20260906132154 | 84 | 357 | 0.0 | 0.0 | 0.00 | 0.07 | 0.07 | 76 | 1012.6 |
| 20260906131643 | 84 | 357 | 0.0 | 0.0 | 0.00 | 0.07 | 0.07 | 76 | 1012.7 |
| 20260906131150 | 84 | 357 | 0.0 | 0.0 | 0.00 | 0.07 | 0.07 | 77 | 1012.7 |
| 20260906130655 | 84 | 347 | 0.0 | 0.0 | 0.00 | 0.07 | 0.07 | 76 | 1012.6 |
| 20260906130200 | 84 | 342 | 0.0 | 0.0 | 0.00 | 0.07 | 0.07 | 76 | 1012.6 |
| 20260906125652 | 84 | 333 | 0.0 | 0.0 | 0.00 | 0.07 | 0.07 | 76 | 1012.5 |
| 20260906125146 | 83 | 357 | 0.0 | 0.0 | 0.00 | 0.07 | 0.07 | 76 | 1012.3 |
| 20260906124919 | 83 | 357 | 0.0 | 0.0 | 0.00 | 0.07 | 0.07 | 76 | 1012.3 |
| 20260906124405 | 83 | 348 | 0.0 | 0.0 | 0.00 | 0.07 | 0.07 | 76 | 1012.2 |
| 20260906123913 | 83 | 348 | 0.0 | 0.0 | 0.00 | 0.07 | 0.07 | 76 | 1012.1 |
| 20260906123358 | 83 | 342 | 0.0 | 0.0 | 0.00 | 0.07 | 0.07 | 76 | 1012.1 |
| 20260906122902 | 83 | 357 | 0.0 | 2.0 | 0.00 | 0.07 | 0.07 | 77 | 1012.1 |
| 20260906122409 | 83 | 357 | 0.0 | 2.0 | 0.00 | 0.07 | 0.07 | 77 | 1012.1 |
| 20260906121857 | 83 | 2 | 0.0 | 2.0 | 0.00 | 0.07 | 0.07 | 78 | 1012.0 |
| 20260906121349 | 83 | 357 | 0.0 | 2.0 | 0.00 | 0.07 | 0.07 | 78 | 1012.0 |
| 20260906120849 | 82 | 357 | 0.0 | 1.0 | 0.00 | 0.07 | 0.07 | 78 | 1011.8 |
| 20260906120342 | 82 | 342 | 0.0 | 1.0 | 0.00 | 0.07 | 0.07 | 79 | 1011.8 |
| 20260906115844 | 82 | 340 | 0.0 | 1.0 | 0.00 | 0.07 | 0.07 | 78 | 1011.6 |
| 20260906115334 | 82 | 357 | 0.0 | 0.0 | 0.00 | 0.07 | 0.07 | 78 | 1011.5 |
| 20260906114824 | 82 | 336 | 0.0 | 2.0 | 0.00 | 0.07 | 0.07 | 78 | 1011.5 |
| 20260906114309 | 82 | 2 | 0.0 | 0.0 | 0.00 | 0.07 | 0.07 | 78 | 1011.6 |
| 20260906113129 | 82 | 2 | 0.0 | 1.0 | 0.00 | 0.07 | 0.07 | 78 | 1011.4 |
| 20260906112629 | 83 | 319 | 0.0 | 4.0 | 0.00 | 0.07 | 0.07 | 79 | 1011.6 |
| 20260906112109 | 83 | 319 | 0.0 | 2.0 | 0.00 | 0.07 | 0.07 | 79 | 1011.5 |
| 20260906111602 | 83 | 291 | 0.0 | 1.0 | 0.00 | 0.07 | 0.07 | 78 | 1011.4 |
| 20260906111046 | 82 | 283 | 0.0 | 2.0 | 0.00 | 0.07 | 0.07 | 78 | 1011.5 |
| 20260906110549 | 82 | 286 | 1.0 | 2.0 | 0.00 | 0.07 | 0.07 | 76 | 1011.3 |
| 20260906110052 | 82 | 286 | 0.0 | 2.0 | 0.00 | 0.07 | 0.07 | 75 | 1011.2 |
| 20260906105542 | 81 | 286 | 0.0 | 2.0 | 0.00 | 0.07 | 0.07 | 74 | 1011.1 |
| 20260906104425 | 81 | 304 | 1.0 | 3.0 | 0.08 | 0.07 | 0.07 | 72 | 1011.2 |
| 20260906103903 | 81 | 305 | 2.0 | 11.0 | 0.10 | 0.07 | 0.07 | 72 | 1011.3 |
| 20260906103357 | 82 | 267 | 4.0 | 11.0 | 0.12 | 0.06 | 0.06 | 72 | 1011.3 |
| 20260906102903 | 82 | 238 | 7.0 | 14.0 | 0.16 | 0.05 | 0.05 | 72 | 1011.2 |
| 20260906102358 | 82 | 239 | 7.0 | 14.0 | 0.55 | 0.03 | 0.03 | 72 | 1011.3 |
| 20260906101841 | 83 | 244 | 3.0 | 14.0 | 0.00 | 0.00 | 0.00 | 76 | 1011.2 |
| 20260906101330 | 85 | 171 | 0.0 | 4.0 | 0.00 | 0.00 | 0.00 | 80 | 1011.2 |
| 20260906100822 | 85 | 2 | 0.0 | 0.0 | 0.00 | 0.00 | 0.00 | 80 | 1011.1 |
| 20260906095651 | 85 | 2 | 0.0 | 0.0 | 0.00 | 0.00 | 0.00 | 79 | 1011.1 |
| 20260906095146 | 85 | 2 | 0.0 | 0.0 | 0.00 | 0.00 | 0.00 | 79 | 1011.1 |
| 20260906094642 | 85 | 296 | 0.0 | 0.0 | 0.00 | 0.00 | 0.00 | 79 | 1011.1 |
| 20260906094127 | 85 | 296 | 0.0 | 0.0 | 0.00 | 0.00 | 0.00 | 79 | 1011.1 |
| 20260906093627 | 85 | 331 | 0.0 | 0.0 | 0.00 | 0.00 | 0.00 | 79 | 1011.2 |
| 20260906093114 | 85 | 294 | 0.0 | 1.0 | 0.00 | 0.00 | 0.00 | 79 | 1011.2 |
| 20260906092619 | 85 | 304 | 0.0 | 0.0 | 0.00 | 0.00 | 0.00 | 79 | 1011.1 |
| 20260906092059 | 85 | 2 | 0.0 | 0.0 | 0.00 | 0.00 | 0.00 | 78 | 1011.1 |
| 20260906091604 | 86 | 2 | 0.0 | 0.0 | 0.00 | 0.00 | 0.00 | 78 | 1011.2 |
| 20260906091050 | 86 | 2 | 0.0 | 0.0 | 0.00 | 0.00 | 0.00 | 78 | 1011.1 |
| 20260906090553 | 86 | 2 | 0.0 | 0.0 | 0.00 | 0.00 | 0.00 | 77 | 1011.1 |
| 20260906090031 | 86 | 287 | 0.0 | 0.0 | 0.00 | 0.00 | 0.00 | 77 | 1011.0 |
| 20260906085526 | 86 | 314 | 0.0 | 0.0 | 0.00 | 0.00 | 0.00 | 77 | 1011.0 |
| 20260906085027 | 86 | 306 | 1.0 | 3.0 | 0.00 | 0.00 | 0.00 | 76 | 1011.0 |
| 20260906084533 | 86 | 271 | 0.0 | 3.0 | 0.00 | 0.00 | 0.00 | 76 | 1010.8 |
| 20260906084011 | 86 | 275 | 0.0 | 2.0 | 0.00 | 0.00 | 0.00 | 76 | 1010.9 |
| 20260906083518 | 86 | 261 | 0.0 | 1.0 | 0.00 | 0.00 | 0.00 | 76 | 1010.9 |
| 20260906082959 | 86 | 269 | 0.0 | 2.0 | 0.00 | 0.00 | 0.00 | 75 | 1010.8 |
| 20260906082443 | 86 | 262 | 0.0 | 0.0 | 0.00 | 0.00 | 0.00 | 75 | 1010.8 |
| 20260906081934 | 86 | 258 | 0.0 | 0.0 | 0.00 | 0.00 | 0.00 | 75 | 1010.9 |
| 20260906081420 | 86 | 277 | 0.0 | 0.0 | 0.00 | 0.00 | 0.00 | 75 | 1011.0 |
| 20260906080902 | 86 | 275 | 1.0 | 3.0 | 0.00 | 0.00 | 0.00 | 75 | 1011.0 |
| 20260906080346 | 86 | 290 | 1.0 | 3.0 | 0.00 | 0.00 | 0.00 | 74 | 1011.0 |
| 20260906075853 | 86 | 263 | 1.0 | 6.0 | 0.00 | 0.00 | 0.00 | 74 | 1010.9 |
| 20260906075355 | 87 | 269 | 2.0 | 6.0 | 0.00 | 0.00 | 0.00 | 74 | 1010.9 |
| 20260906074853 | 87 | 2 | 3.0 | 9.0 | 0.00 | 0.00 | 0.00 | 74 | 1011.0 |
| 20260906074350 | 87 | 233 | 3.0 | 9.0 | 0.00 | 0.00 | 0.00 | 74 | 1011.0 |
| 20260906073849 | 87 | 234 | 4.0 | 9.0 | 0.00 | 0.00 | 0.00 | 74 | 1010.9 |
| 20260906073352 | 87 | 221 | 4.0 | 9.0 | 0.00 | 0.00 | 0.00 | 74 | 1010.9 |
| 20260906072847 | 86 | 191 | 4.0 | 8.0 | 0.00 | 0.00 | 0.00 | 74 | 1011.0 |
| 20260906072338 | 87 | 237 | 3.0 | 8.0 | 0.00 | 0.00 | 0.00 | 74 | 1011.0 |
| 20260906071838 | 87 | 207 | 3.0 | 8.0 | 0.00 | 0.00 | 0.00 | 74 | 1011.1 |
| 20260906071340 | 87 | 211 | 4.0 | 9.0 | 0.00 | 0.00 | 0.00 | 75 | 1011.2 |
| 20260906070825 | 87 | 223 | 3.0 | 9.0 | 0.00 | 0.00 | 0.00 | 75 | 1011.2 |
| 20260906070308 | 87 | 213 | 4.0 | 10.0 | 0.00 | 0.00 | 0.00 | 75 | 1011.0 |
| 20260906065153 | 87 | 223 | 5.0 | 11.0 | 0.00 | 0.00 | 0.00 | 75 | 1011.1 |
| 20260906064651 | 87 | 221 | 6.0 | 11.0 | 0.00 | 0.00 | 0.00 | 75 | 1011.1 |
| 20260906064142 | 87 | 188 | 5.0 | 11.0 | 0.00 | 0.00 | 0.00 | 75 | 1011.0 |
| 20260906063621 | 87 | 227 | 4.0 | 11.0 | 0.00 | 0.00 | 0.00 | 75 | 1011.0 |
| 20260906063108 | 87 | 202 | 5.0 | 11.0 | 0.00 | 0.00 | 0.00 | 75 | 1011.0 |
| 20260906061940 | 87 | 229 | 5.0 | 11.0 | 0.00 | 0.00 | 0.00 | 75 | 1011.0 |
| 20260906061436 | 87 | 233 | 5.0 | 10.0 | 0.00 | 0.00 | 0.00 | 75 | 1011.0 |
| 20260906060303 | 87 | 216 | 5.0 | 10.0 | 0.00 | 0.00 | 0.00 | 74 | 1011.1 |
| 20260906055742 | 87 | 211 | 5.0 | 12.0 | 0.00 | 0.00 | 0.00 | 74 | 1011.1 |
| 20260906054609 | 87 | 212 | 6.0 | 12.0 | 0.00 | 0.00 | 0.00 | 74 | 1011.2 |
| 20260906053438 | 87 | 221 | 6.0 | 11.0 | 0.00 | 0.00 | 0.00 | 75 | 1011.2 |
| 20260906052942 | 87 | 2 | 6.0 | 11.0 | 0.00 | 0.00 | 0.00 | 75 | 1011.3 |
| 20260906052426 | 87 | 211 | 6.0 | 11.0 | 0.00 | 0.00 | 0.00 | 75 | 1011.3 |
| 20260906051909 | 87 | 220 | 6.0 | 11.0 | 0.00 | 0.00 | 0.00 | 76 | 1011.3 |
| 20260906051352 | 87 | 199 | 6.0 | 11.0 | 0.00 | 0.00 | 0.00 | 75 | 1011.3 |
| 20260906050833 | 87 | 173 | 5.0 | 10.0 | 0.00 | 0.00 | 0.00 | 75 | 1011.3 |
| 20260906050313 | 87 | 180 | 5.0 | 10.0 | 0.00 | 0.00 | 0.00 | 75 | 1011.3 |
| 20260906045753 | 87 | 186 | 5.0 | 9.0 | 0.00 | 0.00 | 0.00 | 74 | 1011.3 |
| 20260906045233 | 87 | 203 | 5.0 | 9.0 | 0.00 | 0.00 | 0.00 | 74 | 1011.4 |
| 20260906044741 | 87 | 2 | 5.0 | 9.0 | 0.00 | 0.00 | 0.00 | 74 | 1011.4 |
| 20260906044244 | 87 | 2 | 5.0 | 9.0 | 0.00 | 0.00 | 0.00 | 74 | 1011.4 |
| 20260906043726 | 87 | 189 | 5.0 | 9.0 | 0.00 | 0.00 | 0.00 | 73 | 1011.3 |
| 20260906043232 | 87 | 223 | 6.0 | 9.0 | 0.00 | 0.00 | 0.00 | 73 | 1011.4 |
| 20260906042735 | 87 | 173 | 5.0 | 9.0 | 0.00 | 0.00 | 0.00 | 74 | 1011.4 |
| 20260906041542 | 87 | 2 | 6.0 | 9.0 | 0.00 | 0.00 | 0.00 | 73 | 1011.4 |
| 20260906041041 | 87 | 2 | 5.0 | 9.0 | 0.00 | 0.00 | 0.00 | 74 | 1011.6 |
| 20260906040521 | 87 | 2 | 5.0 | 9.0 | 0.00 | 0.00 | 0.00 | 73 | 1011.5 |
| 20260906040004 | 87 | 192 | 5.0 | 8.0 | 0.00 | 0.00 | 0.00 | 72 | 1011.6 |
| 20260906035449 | 87 | 2 | 5.0 | 8.0 | 0.00 | 0.00 | 0.00 | 73 | 1011.7 |
| 20260906034928 | 87 | 2 | 4.0 | 8.0 | 0.00 | 0.00 | 0.00 | 72 | 1011.7 |
| 20260906033800 | 87 | 191 | 4.0 | 6.0 | 0.00 | 0.00 | 0.00 | 72 | 1011.7 |
| 20260906033247 | 87 | 176 | 4.0 | 6.0 | 0.00 | 0.00 | 0.00 | 72 | 1011.7 |
| 20260906032740 | 87 | 194 | 4.0 | 6.0 | 0.00 | 0.00 | 0.00 | 72 | 1011.7 |
| 20260906032246 | 87 | 2 | 4.0 | 6.0 | 0.00 | 0.00 | 0.00 | 72 | 1011.6 |
| 20260906031742 | 87 | 151 | 4.0 | 6.0 | 0.00 | 0.00 | 0.00 | 72 | 1011.5 |
| 20260906030602 | 87 | 180 | 3.0 | 6.0 | 0.00 | 0.00 | 0.00 | 72 | 1011.6 |
| 20260906025438 | 87 | 193 | 3.0 | 5.0 | 0.00 | 0.00 | 0.00 | 72 | 1011.5 |
| 20260906024936 | 87 | 176 | 2.0 | 6.0 | 0.00 | 0.00 | 0.00 | 72 | 1011.6 |
| 20260906024432 | 87 | 177 | 2.0 | 6.0 | 0.00 | 0.00 | 0.00 | 73 | 1011.6 |
| 20260906023922 | 87 | 103 | 2.0 | 6.0 | 0.00 | 0.00 | 0.00 | 72 | 1011.3 |
| 20260906023414 | 87 | 160 | 2.0 | 6.0 | 0.00 | 0.00 | 0.00 | 72 | 1011.2 |
| 20260906022309 | 87 | 152 | 1.0 | 4.0 | 0.00 | 0.00 | 0.00 | 72 | 1011.1 |
| 20260906021756 | 87 | 109 | 0.0 | 4.0 | 0.00 | 0.00 | 0.00 | 72 | 1010.9 |
| 20260906021248 | 87 | 136 | 0.0 | 4.0 | 0.00 | 0.00 | 0.00 | 72 | 1010.8 |
| 20260906020124 | 87 | 148 | 1.0 | 4.0 | 0.00 | 0.00 | 0.00 | 72 | 1010.6 |
| 20260906014945 | 87 | 156 | 2.0 | 5.0 | 0.00 | 0.00 | 0.00 | 72 | 1010.5 |
| 20260906014443 | 87 | 140 | 3.0 | 5.0 | 0.00 | 0.00 | 0.00 | 72 | 1010.4 |
| 20260906013930 | 87 | 133 | 2.0 | 5.0 | 0.00 | 0.00 | 0.00 | 72 | 1010.6 |
| 20260906013411 | 87 | 164 | 1.0 | 5.0 | 0.00 | 0.00 | 0.00 | 72 | 1010.4 |
| 20260906012902 | 87 | 134 | 2.0 | 5.0 | 0.00 | 0.00 | 0.00 | 72 | 1010.4 |
| 20260906012347 | 87 | 161 | 1.0 | 5.0 | 0.00 | 0.00 | 0.00 | 72 | 1010.4 |
| 20260906011845 | 87 | 103 | 1.0 | 4.0 | 0.00 | 0.00 | 0.00 | 72 | 1010.4 |
| 20260906010716 | 87 | 109 | 1.0 | 2.0 | 0.00 | 0.00 | 0.00 | 72 | 1010.5 |
| 20260906010222 | 87 | 126 | 0.0 | 4.0 | 0.00 | 0.00 | 0.00 | 72 | 1010.5 |
| 20260906005726 | 87 | 92 | 1.0 | 4.0 | 0.00 | 0.00 | 0.00 | 72 | 1010.4 |
| 20260906004556 | 87 | 113 | 2.0 | 4.0 | 0.00 | 0.00 | 0.00 | 72 | 1010.7 |
| 20260906004033 | 88 | 140 | 2.0 | 4.0 | 0.00 | 0.00 | 0.00 | 72 | 1010.6 |
| 20260906003524 | 88 | 188 | 1.0 | 4.0 | 0.00 | 0.00 | 0.00 | 72 | 1010.6 |
| 20260906003020 | 88 | 173 | 1.0 | 4.0 | 0.00 | 0.00 | 0.00 | 72 | 1010.7 |
| 20260906002520 | 88 | 165 | 1.0 | 4.0 | 0.00 | 0.00 | 0.00 | 72 | 1010.7 |
| 20260906002003 | 88 | 142 | 2.0 | 4.0 | 0.00 | 0.00 | 0.00 | 72 | 1011.0 |
| 20260906001447 | 88 | 140 | 2.0 | 4.0 | 0.00 | 0.00 | 0.00 | 72 | 1010.9 |
| 20260906000931 | 88 | 112 | 2.0 | 4.0 | 0.00 | 0.00 | 0.00 | 72 | 1010.9 |
| 20260906000433 | 88 | 154 | 2.0 | 6.0 | 0.00 | 0.00 | 0.00 | 72 | 1010.9 |
| 20260905235932 | 88 | 111 | 2.0 | 6.0 | 0.00 | 0.00 | 0.00 | 72 | 1010.9 |
| 20260905235420 | 88 | 121 | 3.0 | 6.0 | 0.00 | 0.00 | 0.00 | 72 | 1010.8 |
| 20260905234917 | 88 | 150 | 3.0 | 6.0 | 0.00 | 0.00 | 0.00 | 71 | 1010.7 |
| 20260905234417 | 89 | 121 | 3.0 | 5.0 | 0.00 | 0.00 | 0.00 | 71 | 1010.8 |
| 20260905233906 | 89 | 190 | 2.0 | 5.0 | 0.00 | 0.00 | 0.00 | 71 | 1010.7 |
| 20260905233400 | 89 | 140 | 2.0 | 4.0 | 0.00 | 0.00 | 0.00 | 71 | 1010.9 |
| 20260905232838 | 89 | 88 | 1.0 | 5.0 | 0.00 | 0.00 | 0.00 | 71 | 1011.0 |
| 20260905232335 | 89 | 41 | 1.0 | 5.0 | 0.00 | 0.00 | 0.00 | 71 | 1010.9 |
| 20260905231841 | 89 | 109 | 2.0 | 6.0 | 0.00 | 0.00 | 0.00 | 71 | 1011.0 |
| 20260905230034 | 89 | 91 | 1.0 | 5.0 | 0.00 | 0.00 | 0.00 | 70 | 1010.9 |
| 20260905224901 | 89 | 157 | 2.0 | 6.0 | 0.00 | 0.00 | 0.00 | 70 | 1010.6 |
| 20260905224407 | 89 | 170 | 3.0 | 6.0 | 0.00 | 0.00 | 0.00 | 70 | 1010.7 |
| 20260905223905 | 89 | 118 | 2.0 | 6.0 | 0.00 | 0.00 | 0.00 | 70 | 1010.6 |
| 20260905222709 | 90 | 166 | 3.0 | 6.0 | 0.00 | 0.00 | 0.00 | 69 | 1010.9 |
| 20260905222205 | 90 | 200 | 2.0 | 6.0 | 0.00 | 0.00 | 0.00 | 69 | 1010.8 |
| 20260905220405 | 90 | 184 | 1.0 | 4.0 | 0.00 | 0.00 | 0.00 | 69 | 1010.9 |
| 20260905215900 | 90 | 106 | 1.0 | 5.0 | 0.00 | 0.00 | 0.00 | 69 | 1011.0 |
| 20260905215350 | 90 | 159 | 1.0 | 5.0 | 0.00 | 0.00 | 0.00 | 69 | 1011.1 |
| 20260905214845 | 90 | 130 | 2.0 | 5.0 | 0.00 | 0.00 | 0.00 | 69 | 1011.1 |
| 20260905214331 | 90 | 142 | 2.0 | 5.0 | 0.00 | 0.00 | 0.00 | 68 | 1011.1 |
| 20260905213219 | 91 | 192 | 2.0 | 5.0 | 0.00 | 0.00 | 0.00 | 68 | 1010.9 |
| 20260905212705 | 91 | 186 | 3.0 | 5.0 | 0.00 | 0.00 | 0.00 | 67 | 1011.0 |
| 20260905212203 | 91 | 113 | 2.0 | 5.0 | 0.00 | 0.00 | 0.00 | 66 | 1011.1 |
| 20260905211701 | 92 | 180 | 2.0 | 5.0 | 0.00 | 0.00 | 0.00 | 65 | 1011.1 |
| 20260905211205 | 92 | 146 | 2.0 | 5.0 | 0.00 | 0.00 | 0.00 | 64 | 1011.2 |
| 20260905210702 | 93 | 107 | 2.0 | 6.0 | 0.00 | 0.00 | 0.00 | 64 | 1011.2 |
| 20260905210204 | 93 | 163 | 2.0 | 6.0 | 0.00 | 0.00 | 0.00 | 63 | 1011.1 |
| 20260905205710 | 94 | 172 | 3.0 | 6.0 | 0.00 | 0.00 | 0.00 | 64 | 1011.3 |
| 20260905204543 | 94 | 162 | 2.0 | 6.0 | 0.00 | 0.00 | 0.00 | 63 | 1011.4 |
| 20260905203417 | 93 | 107 | 2.0 | 5.0 | 0.00 | 0.00 | 0.00 | 63 | 1011.4 |
| 20260905202923 | 93 | 172 | 3.0 | 5.0 | 0.00 | 0.00 | 0.00 | 65 | 1011.4 |
| 20260905202428 | 92 | 134 | 3.0 | 6.0 | 0.00 | 0.00 | 0.00 | 64 | 1011.7 |
| 20260905201912 | 92 | 166 | 4.0 | 6.0 | 0.00 | 0.00 | 0.00 | 63 | 1011.6 |
| 20260905201353 | 93 | 185 | 0.0 | 6.0 | 0.00 | 0.00 | 0.00 | 63 | 1011.6 |